createdAt,value
2022-12-14T00:00:55.456Z,81.40
2022-12-14T00:03:45.197Z,83.20
2022-12-14T00:06:26.088Z,82.20
2022-12-14T00:09:04.474Z,80.80
2022-12-14T00:11:40.282Z,76.50
2022-12-14T00:14:27.616Z,75.70
2022-12-14T00:17:42.920Z,78.60
2022-12-14T00:20:30.245Z,75.00
2022-12-14T00:23:05.359Z,70.60
2022-12-14T00:25:40.698Z,65.10
2022-12-14T00:28:14.196Z,67.90
2022-12-14T00:30:51.826Z,69.50
2022-12-14T00:33:44.580Z,65.10
2022-12-14T00:36:18.468Z,63.40
2022-12-14T00:38:56.600Z,60.00
2022-12-14T00:41:24.563Z,58.80
2022-12-14T00:43:59.215Z,58.30
2022-12-14T00:46:51.099Z,58.10
2022-12-14T00:49:26.554Z,57.20
2022-12-14T00:52:03.129Z,57.10
2022-12-14T00:54:38.316Z,56.80
2022-12-14T00:57:25.960Z,54.30
2022-12-14T01:00:02.254Z,58.30
2022-12-14T01:02:37.390Z,58.10
2022-12-14T01:05:06.322Z,59.50
2022-12-14T01:07:55.102Z,56.90
2022-12-14T01:10:31.112Z,56.60
2022-12-14T01:12:59.101Z,56.60
2022-12-14T01:15:37.385Z,58.20
2022-12-14T01:18:13.621Z,55.70
2022-12-14T01:20:47.211Z,55.00
2022-12-14T01:23:55.843Z,57.70
2022-12-14T01:26:33.350Z,56.00
2022-12-14T01:29:11.656Z,57.40
2022-12-14T01:35:20.224Z,56.60
2022-12-14T01:37:55.178Z,57.20
2022-12-14T01:40:31.142Z,58.20
2022-12-14T01:43:14.184Z,56.60
2022-12-14T01:45:47.620Z,61.90
2022-12-14T01:48:23.138Z,57.30
2022-12-14T01:51:00.707Z,59.60
2022-12-14T01:53:35.620Z,58.90
2022-12-14T01:56:12.134Z,55.30
2022-12-14T01:58:46.769Z,55.10
2022-12-14T02:01:15.904Z,52.80
2022-12-14T02:03:51.982Z,49.80
2022-12-14T02:06:30.291Z,51.10
2022-12-14T02:09:15.637Z,50.80
2022-12-14T02:11:55.117Z,52.90
2022-12-14T02:14:32.037Z,54.20
2022-12-14T02:17:08.665Z,50.60
2022-12-14T02:19:44.067Z,56.40
2022-12-14T02:22:56.204Z,53.70
2022-12-14T02:25:44.940Z,52.10
2022-12-14T02:28:30.873Z,56.80
2022-12-14T02:31:51.593Z,49.20
2022-12-14T02:34:52.911Z,50.60
2022-12-14T02:37:32.930Z,51.80
2022-12-14T02:40:19.438Z,53.10
2022-12-14T02:43:10.510Z,51.50
2022-12-14T02:45:59.486Z,53.10
2022-12-14T02:48:45.563Z,49.90
2022-12-14T02:51:25.091Z,51.00
2022-12-14T02:54:12.095Z,50.60
2022-12-14T02:56:54.358Z,50.50
2022-12-14T02:59:33.130Z,49.50
2022-12-14T03:02:03.583Z,51.70
2022-12-14T03:04:31.650Z,49.70
2022-12-14T03:07:04.659Z,51.30
2022-12-14T03:09:32.957Z,50.00
2022-12-14T03:12:07.434Z,49.70
2022-12-14T03:17:25.073Z,49.50
2022-12-14T03:20:07.890Z,49.40
2022-12-14T03:22:53.380Z,49.60
2022-12-14T03:25:55.506Z,50.50
2022-12-14T03:28:46.840Z,51.70
2022-12-14T03:31:32.456Z,50.60
2022-12-14T03:34:28.269Z,51.40
2022-12-14T03:37:08.281Z,60.30
2022-12-14T03:39:45.329Z,60.10
2022-12-14T03:42:49.360Z,56.80
2022-12-14T03:45:35.256Z,61.60
2022-12-14T03:48:30.672Z,56.30
2022-12-14T03:51:45.991Z,52.80
2022-12-14T03:54:37.388Z,50.50
2022-12-14T03:57:48.143Z,48.60
2022-12-14T04:00:57.334Z,45.30
2022-12-14T04:03:46.447Z,45.30
2022-12-14T04:06:33.467Z,44.20
2022-12-14T04:09:23.544Z,44.20
2022-12-14T04:12:35.821Z,44.90
2022-12-14T04:15:53.836Z,43.10
2022-12-14T04:18:59.571Z,42.90
2022-12-14T04:21:58.320Z,40.70
2022-12-14T04:25:00.209Z,41.40
2022-12-14T04:27:50.782Z,58.70
2022-12-14T04:30:31.928Z,58.00
2022-12-14T04:33:28.955Z,56.60
2022-12-14T04:36:04.880Z,60.20
2022-12-14T04:38:40.298Z,65.80
2022-12-14T04:41:13.994Z,66.80
2022-12-14T04:43:45.327Z,75.60
2022-12-14T04:46:28.238Z,92.00
2022-12-14T04:49:10.463Z,125.60
2022-12-14T04:52:06.220Z,114.50
2022-12-14T04:54:50.006Z,96.60
2022-12-14T04:58:10.695Z,103.10
2022-12-14T05:01:02.288Z,133.10
2022-12-14T05:03:49.296Z,114.30
2022-12-14T05:07:00.039Z,108.50
2022-12-14T05:09:46.497Z,102.80
2022-12-14T05:12:27.280Z,116.60
2022-12-14T05:15:13.295Z,105.30
2022-12-14T05:17:48.437Z,95.40
2022-12-14T05:20:20.948Z,163.40
2022-12-14T05:22:49.897Z,121.70
2022-12-14T05:25:17.937Z,193.60
2022-12-14T05:27:46.383Z,229.60
2022-12-14T05:30:15.732Z,171.90
2022-12-14T05:32:43.980Z,84.90
2022-12-14T05:35:13.956Z,95.80
2022-12-14T05:37:49.327Z,105.60
2022-12-14T05:40:23.001Z,95.50
2022-12-14T05:42:55.545Z,101.30
2022-12-14T05:45:23.922Z,80.20
2022-12-14T05:47:51.931Z,80.80
2022-12-14T05:50:19.905Z,75.30
2022-12-14T05:52:47.887Z,77.60
2022-12-14T05:55:23.891Z,75.60
2022-12-14T05:57:51.799Z,70.80
2022-12-14T06:00:25.312Z,64.80
2022-12-14T06:03:00.333Z,62.70
2022-12-14T06:05:28.315Z,61.30
2022-12-14T06:07:56.211Z,54.20
2022-12-14T06:10:24.185Z,51.40
2022-12-14T06:12:52.152Z,50.10
2022-12-14T06:15:21.421Z,54.00
2022-12-14T06:17:56.370Z,65.80
2022-12-14T06:20:31.300Z,76.40
2022-12-14T06:23:06.261Z,126.70
2022-12-14T06:25:34.230Z,112.30
2022-12-14T06:28:02.179Z,75.20
2022-12-14T06:30:35.601Z,69.20
2022-12-14T06:33:03.533Z,71.50
2022-12-14T06:35:31.447Z,79.00
2022-12-14T06:38:07.412Z,71.50
2022-12-14T06:40:44.054Z,61.80
2022-12-14T06:43:18.674Z,58.80
2022-12-14T06:45:52.203Z,58.30
2022-12-14T06:48:27.229Z,65.70
2022-12-14T06:51:04.731Z,70.40
2022-12-14T06:53:39.604Z,66.00
2022-12-14T06:56:16.423Z,62.70
2022-12-14T06:58:56.684Z,60.50
2022-12-14T07:01:32.859Z,55.50
2022-12-14T07:04:10.340Z,55.50
2022-12-14T07:06:59.064Z,60.40
2022-12-14T07:09:34.108Z,65.80
2022-12-14T07:12:10.127Z,68.10
2022-12-14T07:14:45.093Z,67.40
2022-12-14T07:17:22.027Z,67.50
2022-12-14T07:19:57.027Z,69.00
2022-12-14T07:22:25.441Z,67.40
2022-12-14T07:24:53.381Z,60.20
2022-12-14T07:27:21.633Z,56.70
2022-12-14T07:29:49.535Z,53.20
2022-12-14T07:32:17.469Z,52.10
2022-12-14T07:34:45.501Z,46.60
2022-12-14T07:37:13.606Z,47.60
2022-12-14T07:39:41.566Z,46.00
2022-12-14T07:42:09.590Z,42.60
2022-12-14T07:44:37.589Z,42.60
2022-12-14T07:47:05.697Z,41.40
2022-12-14T07:49:33.593Z,44.00
2022-12-14T07:52:01.588Z,49.50
2022-12-14T07:54:29.826Z,51.40
2022-12-14T07:56:57.804Z,55.90
2022-12-14T07:59:25.732Z,58.30
2022-12-14T08:01:55.735Z,58.00
2022-12-14T08:04:23.874Z,63.80
2022-12-14T08:06:52.085Z,63.40
2022-12-14T08:09:20.400Z,66.70
2022-12-14T08:11:48.388Z,71.50
2022-12-14T08:14:18.257Z,70.30
2022-12-14T08:16:47.639Z,67.70
2022-12-14T08:19:17.039Z,66.70
2022-12-14T08:21:48.282Z,58.60
2022-12-14T08:24:21.958Z,63.20
2022-12-14T08:26:57.095Z,58.80
2022-12-14T08:29:25.003Z,58.80
2022-12-14T08:31:55.721Z,52.80
2022-12-14T08:34:29.383Z,55.70
2022-12-14T08:36:57.433Z,59.50
2022-12-14T08:39:25.324Z,60.30
2022-12-14T08:41:53.363Z,59.50
2022-12-14T08:44:21.260Z,60.30
2022-12-14T08:46:49.217Z,54.90
2022-12-14T08:49:17.436Z,52.70
2022-12-14T08:51:45.421Z,52.10
2022-12-14T08:54:13.342Z,54.20
2022-12-14T08:56:41.278Z,47.50
2022-12-14T08:59:19.622Z,39.90
2022-12-14T09:01:57.256Z,40.20
2022-12-14T09:04:25.458Z,41.50
2022-12-14T09:06:53.366Z,40.00
2022-12-14T09:09:21.291Z,43.30
2022-12-14T09:11:49.338Z,45.80
2022-12-14T09:14:17.276Z,48.40
2022-12-14T09:16:45.261Z,48.10
2022-12-14T09:19:13.271Z,51.20
2022-12-14T09:21:41.406Z,50.00
2022-12-14T09:24:09.767Z,50.40
2022-12-14T09:26:37.883Z,53.90
2022-12-14T09:29:06.084Z,54.50
2022-12-14T09:31:34.043Z,57.50
2022-12-14T09:34:01.991Z,57.30
2022-12-14T09:36:29.969Z,55.40
2022-12-14T09:38:58.293Z,45.80
2022-12-14T09:41:35.405Z,57.40
2022-12-14T09:44:19.069Z,55.60
2022-12-14T09:47:08.641Z,52.90
2022-12-14T09:49:51.033Z,50.70
2022-12-14T09:52:35.506Z,56.40
2022-12-14T09:55:10.580Z,49.70
2022-12-14T10:07:45.524Z,46.60
2022-12-14T10:10:31.893Z,45.50
2022-12-14T10:13:18.399Z,45.80
2022-12-14T10:16:08.080Z,48.00
2022-12-14T10:19:00.465Z,46.70
2022-12-14T10:21:42.292Z,46.50
2022-12-14T10:24:17.629Z,47.10
2022-12-14T10:26:51.592Z,49.70
2022-12-14T10:29:25.626Z,53.10
2022-12-14T10:32:05.644Z,53.00
2022-12-14T10:34:34.957Z,56.10
2022-12-14T10:37:11.134Z,52.60
2022-12-14T10:40:11.316Z,49.00
2022-12-14T10:42:50.814Z,46.10
2022-12-14T10:45:41.231Z,46.50
2022-12-14T10:48:28.376Z,48.20
2022-12-14T10:51:29.386Z,59.20
2022-12-14T10:54:10.828Z,68.90
2022-12-14T10:56:42.795Z,58.60
2022-12-14T10:59:14.388Z,53.50
2022-12-14T11:01:43.211Z,52.40
2022-12-14T11:04:29.837Z,60.40
2022-12-14T11:07:09.639Z,58.30
2022-12-14T11:09:38.769Z,56.70
2022-12-14T11:12:27.163Z,53.80
2022-12-14T11:14:58.830Z,54.30
2022-12-14T11:17:36.092Z,55.50
2022-12-14T11:20:23.354Z,58.20
2022-12-14T11:22:55.110Z,59.40
2022-12-14T11:25:42.518Z,54.90
2022-12-14T11:28:36.001Z,56.00
2022-12-14T11:31:08.479Z,55.30
2022-12-14T11:33:50.260Z,55.10
2022-12-14T11:36:36.029Z,58.90
2022-12-14T11:39:09.323Z,60.10
2022-12-14T11:41:40.574Z,54.70
2022-12-14T11:44:14.503Z,51.10
2022-12-14T11:46:45.586Z,52.10
2022-12-14T11:49:38.303Z,48.50
2022-12-14T11:52:06.327Z,52.90
2022-12-14T11:54:36.418Z,50.80
2022-12-14T11:57:13.354Z,50.80
2022-12-14T11:59:45.775Z,51.30
2022-12-14T12:03:01.467Z,51.80
2022-12-14T12:05:38.626Z,52.70
2022-12-14T12:08:21.920Z,54.20
2022-12-14T12:10:52.147Z,57.90
2022-12-14T12:13:28.853Z,59.40
2022-12-14T12:16:04.671Z,62.60
2022-12-14T12:18:35.778Z,59.30
2022-12-14T12:21:07.154Z,55.30
2022-12-14T12:23:42.024Z,54.10
2022-12-14T12:26:32.412Z,56.50
2022-12-14T12:29:06.556Z,52.80
2022-12-14T12:32:26.904Z,53.60
2022-12-14T12:35:11.090Z,54.50
2022-12-14T12:37:49.129Z,53.30
2022-12-14T12:40:27.919Z,55.50
2022-12-14T12:43:15.486Z,54.90
2022-12-14T12:45:51.579Z,68.30
2022-12-14T12:48:38.415Z,61.90
2022-12-14T12:51:13.393Z,58.10
2022-12-14T12:53:44.101Z,54.30
2022-12-14T12:56:20.295Z,55.20
2022-12-14T12:58:52.807Z,53.40
2022-12-14T13:01:35.031Z,57.40
2022-12-14T13:04:10.331Z,57.70
2022-12-14T13:07:05.427Z,58.20
2022-12-14T13:09:48.861Z,55.10
2022-12-14T13:12:25.707Z,58.90
2022-12-14T13:14:57.409Z,57.60
2022-12-14T13:17:34.182Z,54.30
2022-12-14T13:20:06.989Z,56.40
2022-12-14T13:22:37.047Z,55.90
2022-12-14T13:25:18.506Z,55.90
2022-12-14T13:28:15.090Z,58.20
2022-12-14T13:30:52.528Z,54.80
2022-12-14T13:33:38.550Z,55.40
2022-12-14T13:36:12.525Z,62.20
2022-12-14T13:39:07.280Z,57.50
2022-12-14T13:41:56.893Z,61.70
2022-12-14T13:44:47.584Z,60.10
2022-12-14T13:47:20.505Z,65.80
2022-12-14T13:50:26.839Z,66.80
2022-12-14T13:52:46.719Z,72.50
2022-12-14T13:55:32.934Z,81.30
2022-12-14T13:58:21.347Z,71.60
2022-12-14T14:00:50.665Z,66.90
2022-12-14T14:03:40.044Z,64.00
2022-12-14T14:06:29.344Z,75.10
2022-12-14T14:08:57.317Z,77.10
2022-12-14T14:11:43.490Z,78.10
2022-12-14T14:14:29.491Z,78.20
2022-12-14T14:17:03.595Z,75.10
2022-12-14T14:19:39.538Z,72.40
2022-12-14T14:22:26.528Z,71.10
2022-12-14T14:25:00.990Z,68.30
2022-12-14T14:27:50.547Z,73.00
2022-12-14T14:30:23.749Z,80.60
2022-12-14T14:32:54.235Z,91.80
2022-12-14T14:35:36.807Z,80.00
2022-12-14T14:38:30.308Z,77.60
2022-12-14T14:41:17.000Z,81.10
2022-12-14T14:43:55.833Z,77.00
2022-12-14T14:46:36.883Z,81.10
2022-12-14T14:49:06.909Z,72.00
2022-12-14T14:51:36.849Z,67.40
2022-12-14T14:54:53.920Z,68.50
2022-12-14T14:57:34.114Z,69.60
2022-12-14T15:00:05.208Z,74.60
2022-12-14T15:02:40.204Z,76.20
2022-12-14T15:08:34.280Z,68.00
2022-12-14T15:11:05.454Z,65.70
2022-12-14T15:13:46.293Z,67.40
2022-12-14T15:16:29.245Z,68.60
2022-12-14T15:19:25.451Z,68.70
2022-12-14T15:22:00.959Z,67.10
2022-12-14T15:24:32.847Z,59.30
2022-12-14T15:27:10.552Z,58.00
2022-12-14T15:29:38.690Z,58.60
2022-12-14T15:32:06.781Z,58.70
2022-12-14T15:34:35.303Z,59.60
2022-12-14T15:37:03.342Z,59.10
2022-12-14T15:39:33.636Z,59.70
2022-12-14T15:42:11.562Z,57.90
2022-12-14T15:44:43.857Z,61.10
2022-12-14T15:47:27.402Z,63.10
2022-12-14T15:50:13.467Z,59.60
2022-12-14T15:52:43.889Z,55.80
2022-12-14T15:55:40.691Z,54.70
2022-12-14T15:58:28.461Z,52.70
2022-12-14T16:01:05.235Z,49.70
2022-12-14T16:03:41.413Z,52.50
2022-12-14T16:06:13.605Z,51.60
2022-12-14T16:08:58.499Z,59.70
2022-12-14T16:11:42.520Z,58.80
2022-12-14T16:14:22.291Z,57.30
2022-12-14T16:16:50.977Z,51.30
2022-12-14T16:19:28.871Z,57.80
2022-12-14T16:22:21.179Z,51.70
2022-12-14T16:25:04.134Z,56.00
2022-12-14T16:27:37.015Z,57.00
2022-12-14T16:30:30.831Z,54.10
2022-12-14T16:33:15.615Z,63.40
2022-12-14T16:35:45.614Z,73.50
2022-12-14T16:38:16.091Z,66.60
2022-12-14T16:40:54.260Z,64.20
2022-12-14T16:43:28.316Z,54.40
2022-12-14T16:46:05.793Z,56.00
2022-12-14T16:48:40.306Z,119.30
2022-12-14T16:54:22.990Z,79.50
2022-12-14T16:59:26.515Z,67.10
2022-12-14T17:01:55.163Z,80.00
2022-12-14T17:04:24.469Z,82.90
2022-12-14T17:06:54.464Z,89.80
2022-12-14T17:09:28.304Z,75.50
2022-12-14T17:11:59.049Z,74.90
2022-12-14T17:14:28.275Z,72.30
2022-12-14T17:17:01.426Z,80.70
2022-12-14T17:19:37.224Z,82.10
2022-12-14T17:22:12.985Z,84.10
2022-12-14T17:24:41.246Z,81.90
2022-12-14T17:27:15.711Z,71.40
2022-12-14T17:29:44.096Z,73.50
2022-12-14T17:32:14.671Z,76.20
2022-12-14T17:34:45.605Z,78.80
2022-12-14T17:37:21.214Z,87.00
2022-12-14T17:39:49.523Z,94.80
2022-12-14T17:42:22.464Z,81.40
2022-12-14T17:44:56.258Z,86.00
2022-12-14T17:47:24.997Z,113.50
2022-12-14T17:49:53.085Z,124.90
2022-12-14T17:52:27.331Z,131.90
2022-12-14T17:54:55.329Z,128.40
2022-12-14T17:57:24.689Z,146.40
2022-12-14T18:00:11.615Z,136.70
2022-12-14T18:02:46.028Z,101.90
2022-12-14T18:05:19.678Z,86.40
2022-12-14T18:07:49.580Z,78.20
2022-12-14T18:10:18.562Z,92.10
2022-12-14T18:12:46.851Z,99.20
2022-12-14T18:15:19.696Z,93.70
2022-12-14T18:17:49.470Z,93.90
2022-12-14T18:20:22.053Z,91.00
2022-12-14T18:22:51.099Z,67.30
2022-12-14T18:25:28.286Z,62.30
2022-12-14T18:27:57.432Z,63.00
2022-12-14T18:30:26.297Z,67.00
2022-12-14T18:32:56.242Z,60.80
2022-12-14T18:35:26.891Z,61.30
2022-12-14T18:37:55.604Z,57.90
2022-12-14T18:40:27.033Z,56.30
2022-12-14T18:42:56.455Z,57.50
2022-12-14T18:45:27.053Z,62.30
2022-12-14T18:47:55.309Z,65.80
2022-12-14T18:50:24.105Z,59.00
2022-12-14T18:52:52.201Z,60.20
2022-12-14T18:55:29.838Z,54.80
2022-12-14T18:58:00.901Z,53.80
2022-12-14T19:00:33.928Z,56.80
2022-12-14T19:03:04.067Z,55.80
2022-12-14T19:05:32.769Z,48.20
2022-12-14T19:08:01.009Z,44.10
2022-12-14T19:10:32.804Z,43.40
2022-12-14T19:13:01.027Z,39.10
2022-12-14T19:15:35.170Z,41.90
2022-12-14T19:18:03.442Z,48.40
2022-12-14T19:20:31.498Z,43.90
2022-12-14T19:22:59.550Z,41.50
2022-12-14T19:25:27.593Z,40.30
2022-12-14T19:30:47.103Z,38.60
2022-12-14T19:33:15.265Z,38.70
2022-12-14T19:35:43.676Z,40.70
2022-12-14T19:38:16.556Z,40.00
2022-12-14T19:40:56.306Z,37.40
2022-12-14T19:43:24.369Z,34.80
2022-12-14T19:45:52.547Z,36.20
2022-12-14T19:48:21.844Z,35.40
2022-12-14T19:50:50.012Z,37.60
2022-12-14T19:53:23.154Z,36.90
2022-12-14T19:55:53.221Z,43.60
2022-12-14T19:58:22.186Z,33.10
2022-12-14T20:00:51.360Z,36.90
2022-12-14T20:03:20.202Z,40.20
2022-12-14T20:05:59.592Z,42.40
2022-12-14T20:08:29.594Z,37.40
2022-12-14T20:10:57.830Z,40.80
2022-12-14T20:13:27.036Z,40.80
2022-12-14T20:16:00.359Z,36.30
2022-12-14T20:18:30.530Z,50.50
2022-12-14T20:21:07.753Z,44.00
2022-12-14T20:23:37.938Z,38.90
2022-12-14T20:26:09.870Z,45.40
2022-12-14T20:28:38.044Z,40.40
2022-12-14T20:31:08.413Z,43.80
2022-12-14T20:33:37.446Z,39.60
2022-12-14T20:36:08.590Z,39.50
2022-12-14T20:38:38.940Z,38.80
2022-12-14T20:41:12.339Z,38.80
2022-12-14T20:43:43.099Z,39.00
2022-12-14T20:46:28.351Z,50.30
2022-12-14T20:48:57.042Z,44.70
2022-12-14T20:51:25.163Z,38.20
2022-12-14T20:53:53.330Z,38.40
2022-12-14T20:56:21.892Z,36.40
2022-12-14T20:58:49.966Z,34.40
2022-12-14T21:01:20.100Z,35.90
2022-12-14T21:03:49.855Z,35.00
2022-12-14T21:06:21.963Z,35.50
2022-12-14T21:09:05.159Z,38.70
2022-12-14T21:11:59.860Z,37.80
2022-12-14T21:14:37.221Z,35.90
2022-12-14T21:17:05.782Z,36.60
2022-12-14T21:19:36.090Z,42.50
2022-12-14T21:22:05.980Z,53.50
2022-12-14T21:27:27.486Z,66.70
2022-12-14T21:29:55.428Z,66.80
2022-12-14T21:32:23.517Z,62.10
2022-12-14T21:34:51.837Z,59.60
2022-12-14T21:37:20.630Z,60.90
2022-12-14T21:39:54.875Z,58.50
2022-12-14T21:42:24.770Z,59.80
2022-12-14T21:44:54.123Z,64.50
2022-12-14T21:47:28.611Z,61.00
2022-12-14T21:49:57.369Z,52.40
2022-12-14T21:52:27.391Z,55.40
2022-12-14T21:54:55.996Z,59.30
2022-12-14T21:57:49.592Z,62.80
2022-12-14T22:00:19.776Z,74.10
2022-12-14T22:02:48.168Z,69.10
2022-12-14T22:05:16.843Z,65.00
2022-12-14T22:07:44.874Z,66.60
2022-12-14T22:10:13.182Z,66.60
2022-12-14T22:12:41.198Z,66.60
2022-12-14T22:15:09.931Z,94.30
2022-12-14T22:17:37.955Z,87.30
2022-12-14T22:20:06.460Z,95.00
2022-12-14T22:22:34.396Z,105.90
2022-12-14T22:25:02.447Z,108.00
2022-12-14T22:27:30.361Z,105.20
2022-12-14T22:29:58.404Z,141.10
2022-12-14T22:32:27.026Z,145.10
2022-12-14T22:35:00.331Z,129.30
2022-12-14T22:37:28.316Z,128.40
2022-12-14T22:39:56.215Z,120.00
2022-12-14T22:42:24.167Z,112.50
2022-12-14T22:44:52.053Z,81.90
2022-12-14T22:47:20.049Z,87.10
2022-12-14T22:49:47.950Z,87.70
2022-12-14T22:52:21.244Z,90.00
2022-12-14T22:54:54.391Z,99.60
2022-12-14T22:57:22.577Z,90.00
2022-12-14T22:59:58.705Z,80.20
2022-12-14T23:02:26.805Z,75.50
2022-12-14T23:04:54.951Z,75.40
2022-12-14T23:07:22.945Z,78.50
2022-12-14T23:10:09.600Z,89.50
2022-12-14T23:12:56.034Z,97.70
2022-12-14T23:15:42.383Z,91.30
2022-12-14T23:18:28.647Z,79.10
2022-12-14T23:21:15.073Z,106.60
2022-12-14T23:24:04.005Z,141.60
2022-12-14T23:26:51.993Z,87.10
2022-12-14T23:29:38.518Z,68.10
2022-12-14T23:32:25.045Z,70.50
2022-12-14T23:35:11.595Z,50.40
2022-12-14T23:37:57.937Z,46.60
2022-12-14T23:40:44.434Z,42.30
2022-12-14T23:43:34.402Z,43.80
2022-12-14T23:46:23.605Z,44.40
2022-12-14T23:49:15.429Z,44.70
2022-12-14T23:52:02.647Z,41.20
2022-12-14T23:54:49.095Z,43.80
2022-12-14T23:57:36.173Z,49.70
